OOCL Long Beach — VRYO4 — position and weather

sailwx.info

Track history (hours):
 
Tides and Currents Weather Stations Pressure Air Temp Water Temp Dewpoint Dewpoint Depression Visibility Wind Speed Wind Dir Waves Ship Positions

OOCL Long Beach

Last reported at 2014-Sep-27 17:28 UTC. Time now 2014-Sep-30 21:55 UTC.
Position N 33°52' E 129°27'.

Length 323 m; beam 42.8 m; draft 14.5 m.

Type: Cargo ship. MMSI: 477316000.

Date/timePositionNaut miles runAvg speedWind from/ knotsBaromVisibWave heightAir tempDewpointWater temp
2014-Sep-27 17:28N 33°52' E 129°27'2519.6
2014-Sep-27 16:13N 33°36' E 129°05'80018.7
2014-Sep-25 21:19N 22°59' E 119°56'1418.0
2014-Sep-25 20:33N 22°47' E 120°03'1818.0
2014-Sep-25 19:33N 22°33' E 120°15'3 3.3
2014-Sep-25 18:32N 22°34' E 120°19'0 0.0
2014-Sep-25 17:14N 22°34' E 120°19'0 0.0
2014-Sep-25 16:32N 22°34' E 120°19'0 0.0
2014-Sep-25 15:32N 22°34' E 120°19'0 0.0
2014-Sep-25 14:32N 22°34' E 120°19'0 0.0
2014-Sep-25 13:32N 22°34' E 120°19'0 0.0
2014-Sep-25 10:08N 22°34' E 120°19'0 0.0
2014-Sep-25 07:32N 22°34' E 120°19'0 0.0
2014-Sep-25 05:26N 22°34' E 120°19'0 0.0
2014-Sep-25 04:32N 22°34' E 120°19'0 0.1
2014-Sep-25 03:26N 22°34' E 120°19'0 0.0
2014-Sep-25 02:32N 22°34' E 120°19'0 0.0
2014-Sep-25 01:32N 22°34' E 120°19'1 1.1
2014-Sep-25 00:29N 22°33' E 120°19'5 5.7
2014-Sep-24 23:33N 22°32' E 120°14'1312.9
2014-Sep-24 22:33N 22°30' E 119°60'31719.3
2014-Sep-24 06:06N 22°34' E 114°16'0 0.0
2014-Sep-23 16:04N 22°34' E 114°16'0 0.0
2014-Sep-23 09:04N 22°34' E 114°16'0 0.0
2014-Sep-23 07:10N 22°34' E 114°16'0 0.5
2014-Sep-23 06:33N 22°34' E 114°17'6 2.6
2014-Sep-23 04:24N 22°33' E 114°23'19 3.2
2014-Sep-22 22:30N 22°21' E 114°07'0 0.0
2014-Sep-21 20:20N 22°20' E 114°07'4 4.6
2014-Sep-21 19:28N 22°21' E 114°03'910.2
2014-Sep-21 18:33N 22°24' E 113°53'8 7.9
2014-Sep-21 17:33N 22°32' E 113°51'0 0.4
2014-Sep-21 16:20N 22°32' E 113°51'0 0.0
2014-Sep-21 15:26N 22°32' E 113°51'0 0.0
2014-Sep-21 14:32N 22°32' E 113°51'0 0.0
2014-Sep-21 13:32N 22°32' E 113°51'0 0.0
2014-Sep-21 12:32N 22°32' E 113°51'0 0.0
2014-Sep-21 11:32N 22°32' E 113°51'0 0.0
2014-Sep-21 10:26N 22°32' E 113°51'0 0.0
2014-Sep-21 09:32N 22°32' E 113°51'0 0.0
2014-Sep-21 07:26N 22°32' E 113°51'0 0.0
2014-Sep-21 04:14N 22°32' E 113°51'0 0.0
2014-Sep-21 03:26N 22°32' E 113°51'0 0.0
2014-Sep-21 02:08N 22°32' E 113°51'0 0.0
2014-Sep-21 00:20N 22°32' E 113°51'0 0.0
2014-Sep-20 23:20N 22°32' E 113°51'0 0.0
2014-Sep-20 20:32N 22°32' E 113°51'0 0.0
2014-Sep-20 19:26N 22°32' E 113°51'0 0.0
2014-Sep-20 18:20N 22°32' E 113°51'0 0.0
2014-Sep-20 17:32N 22°32' E 113°51'0 0.0
2014-Sep-20 16:33N 22°32' E 113°51'8 7.6
2014-Sep-20 15:33N 22°25' E 113°53'8 8.4
2014-Sep-20 14:33N 22°21' E 114°01'1410.2
2014-Sep-20 13:08N 22°10' E 114°12'143 5.8
2014-Sep-19 12:20N 22°45' E 116°42'1714.4
2014-Sep-19 11:10N 22°53' E 116°58'1515.4
2014-Sep-19 10:10N 23°02' E 117°12'1115.4
2014-Sep-19 09:26N 23°09' E 117°22'1415.3
2014-Sep-19 08:32N 23°19' E 117°31'1515.4
2014-Sep-19 07:33N 23°30' E 117°43'1515.4
2014-Sep-19 06:33N 23°41' E 117°54'1616.4
2014-Sep-19 05:33N 23°53' E 118°06'1716.6
2014-Sep-19 04:34N 24°05' E 118°19'1515.1
2014-Sep-19 03:33N 24°19' E 118°12'1313.2
2014-Sep-19 02:34N 24°27' E 118°00'0 0.1
2014-Sep-19 01:27N 24°27' E 118°00'0 0.0
2014-Sep-19 00:27N 24°27' E 118°00'0 0.0
2014-Sep-18 23:33N 24°27' E 118°00'0 0.0
2014-Sep-18 22:33N 24°27' E 118°00'0 0.0
2014-Sep-18 21:03N 24°27' E 118°00'0 0.0
2014-Sep-18 20:27N 24°27' E 118°00'0 0.0
2014-Sep-18 19:33N 24°27' E 118°00'0 0.0
2014-Sep-18 18:27N 24°27' E 118°00'0 0.0
2014-Sep-18 17:15N 24°27' E 118°00'0 0.0
2014-Sep-18 16:33N 24°27' E 118°00'0 0.0
2014-Sep-18 15:33N 24°27' E 118°00'0 0.0
2014-Sep-18 14:33N 24°27' E 118°00'0 0.0
2014-Sep-18 13:03N 24°27' E 118°00'0 0.0
2014-Sep-18 12:21N 24°27' E 118°00'2 2.5
2014-Sep-18 11:33N 24°26' E 118°02'1211.6
2014-Sep-18 10:33N 24°19' E 118°12'1010.4
2014-Sep-18 09:33N 24°11' E 118°19'5 4.6
2014-Sep-18 08:33N 24°07' E 118°23'6 6.3
2014-Sep-18 07:33N 24°03' E 118°28'8 7.7
2014-Sep-18 06:33N 23°58' E 118°34'7 7.5
2014-Sep-18 05:33N 23°53' E 118°40'19 5.8
2014-Sep-18 02:21N 23°40' E 118°55'8 7.9
2014-Sep-18 01:21N 23°35' E 119°01'6 7.7
2014-Sep-18 00:33N 23°31' E 119°06'10 7.7
2014-Sep-17 23:17N 23°24' E 119°14'18 9.8
2014-Sep-17 21:28N 23°08' E 119°24'28 9.6
2014-Sep-17 18:33N 22°52' E 119°48'1010.0
2014-Sep-17 17:33N 22°47' E 119°57'  
Track history (hours):
 
Tides and Currents Weather Stations Pressure Air Temp Water Temp Dewpoint Dewpoint Depression Visibility Wind Speed Wind Dir Waves Ship Positions

OOCL Long Beach

Last reported at 2014-Sep-27 17:28 UTC. Time now 2014-Sep-30 21:55 UTC.
Position N 33°52' E 129°27'.

Length 323 m; beam 42.8 m; draft 14.5 m.

Type: Cargo ship. MMSI: 477316000.

Date/timePositionNaut miles runAvg speedWind from/ knotsBaromVisibWave heightAir tempDewpointWater temp
2014-Sep-27 17:28N 33°52' E 129°27'2519.6
2014-Sep-27 16:13N 33°36' E 129°05'80018.7
2014-Sep-25 21:19N 22°59' E 119°56'1418.0
2014-Sep-25 20:33N 22°47' E 120°03'1818.0
2014-Sep-25 19:33N 22°33' E 120°15'3 3.3
2014-Sep-25 18:32N 22°34' E 120°19'0 0.0
2014-Sep-25 17:14N 22°34' E 120°19'0 0.0
2014-Sep-25 16:32N 22°34' E 120°19'0 0.0
2014-Sep-25 15:32N 22°34' E 120°19'0 0.0
2014-Sep-25 14:32N 22°34' E 120°19'0 0.0
2014-Sep-25 13:32N 22°34' E 120°19'0 0.0
2014-Sep-25 10:08N 22°34' E 120°19'0 0.0
2014-Sep-25 07:32N 22°34' E 120°19'0 0.0
2014-Sep-25 05:26N 22°34' E 120°19'0 0.0
2014-Sep-25 04:32N 22°34' E 120°19'0 0.1
2014-Sep-25 03:26N 22°34' E 120°19'0 0.0
2014-Sep-25 02:32N 22°34' E 120°19'0 0.0
2014-Sep-25 01:32N 22°34' E 120°19'1 1.1
2014-Sep-25 00:29N 22°33' E 120°19'5 5.7
2014-Sep-24 23:33N 22°32' E 120°14'1312.9
2014-Sep-24 22:33N 22°30' E 119°60'31719.3
2014-Sep-24 06:06N 22°34' E 114°16'0 0.0
2014-Sep-23 16:04N 22°34' E 114°16'0 0.0
2014-Sep-23 09:04N 22°34' E 114°16'0 0.0
2014-Sep-23 07:10N 22°34' E 114°16'0 0.5
2014-Sep-23 06:33N 22°34' E 114°17'6 2.6
2014-Sep-23 04:24N 22°33' E 114°23'19 3.2
2014-Sep-22 22:30N 22°21' E 114°07'0 0.0
2014-Sep-21 20:20N 22°20' E 114°07'4 4.6
2014-Sep-21 19:28N 22°21' E 114°03'910.2
2014-Sep-21 18:33N 22°24' E 113°53'8 7.9
2014-Sep-21 17:33N 22°32' E 113°51'0 0.4
2014-Sep-21 16:20N 22°32' E 113°51'0 0.0
2014-Sep-21 15:26N 22°32' E 113°51'0 0.0
2014-Sep-21 14:32N 22°32' E 113°51'0 0.0
2014-Sep-21 13:32N 22°32' E 113°51'0 0.0
2014-Sep-21 12:32N 22°32' E 113°51'0 0.0
2014-Sep-21 11:32N 22°32' E 113°51'0 0.0
2014-Sep-21 10:26N 22°32' E 113°51'0 0.0
2014-Sep-21 09:32N 22°32' E 113°51'0 0.0
2014-Sep-21 07:26N 22°32' E 113°51'0 0.0
2014-Sep-21 04:14N 22°32' E 113°51'0 0.0
2014-Sep-21 03:26N 22°32' E 113°51'0 0.0
2014-Sep-21 02:08N 22°32' E 113°51'0 0.0
2014-Sep-21 00:20N 22°32' E 113°51'0 0.0
2014-Sep-20 23:20N 22°32' E 113°51'0 0.0
2014-Sep-20 20:32N 22°32' E 113°51'0 0.0
2014-Sep-20 19:26N 22°32' E 113°51'0 0.0
2014-Sep-20 18:20N 22°32' E 113°51'0 0.0
2014-Sep-20 17:32N 22°32' E 113°51'0 0.0
2014-Sep-20 16:33N 22°32' E 113°51'8 7.6
2014-Sep-20 15:33N 22°25' E 113°53'8 8.4
2014-Sep-20 14:33N 22°21' E 114°01'1410.2
2014-Sep-20 13:08N 22°10' E 114°12'143 5.8
2014-Sep-19 12:20N 22°45' E 116°42'1714.4
2014-Sep-19 11:10N 22°53' E 116°58'1515.4
2014-Sep-19 10:10N 23°02' E 117°12'1115.4
2014-Sep-19 09:26N 23°09' E 117°22'1415.3
2014-Sep-19 08:32N 23°19' E 117°31'1515.4
2014-Sep-19 07:33N 23°30' E 117°43'1515.4
2014-Sep-19 06:33N 23°41' E 117°54'1616.4
2014-Sep-19 05:33N 23°53' E 118°06'1716.6
2014-Sep-19 04:34N 24°05' E 118°19'1515.1
2014-Sep-19 03:33N 24°19' E 118°12'1313.2
2014-Sep-19 02:34N 24°27' E 118°00'0 0.1
2014-Sep-19 01:27N 24°27' E 118°00'0 0.0
2014-Sep-19 00:27N 24°27' E 118°00'0 0.0
2014-Sep-18 23:33N 24°27' E 118°00'0 0.0
2014-Sep-18 22:33N 24°27' E 118°00'0 0.0
2014-Sep-18 21:03N 24°27' E 118°00'0 0.0
2014-Sep-18 20:27N 24°27' E 118°00'0 0.0
2014-Sep-18 19:33N 24°27' E 118°00'0 0.0
2014-Sep-18 18:27N 24°27' E 118°00'0 0.0
2014-Sep-18 17:15N 24°27' E 118°00'0 0.0
2014-Sep-18 16:33N 24°27' E 118°00'0 0.0
2014-Sep-18 15:33N 24°27' E 118°00'0 0.0
2014-Sep-18 14:33N 24°27' E 118°00'0 0.0
2014-Sep-18 13:03N 24°27' E 118°00'0 0.0
2014-Sep-18 12:21N 24°27' E 118°00'2 2.5
2014-Sep-18 11:33N 24°26' E 118°02'1211.6
2014-Sep-18 10:33N 24°19' E 118°12'1010.4
2014-Sep-18 09:33N 24°11' E 118°19'5 4.6
2014-Sep-18 08:33N 24°07' E 118°23'6 6.3
2014-Sep-18 07:33N 24°03' E 118°28'8 7.7
2014-Sep-18 06:33N 23°58' E 118°34'7 7.5
2014-Sep-18 05:33N 23°53' E 118°40'19 5.8
2014-Sep-18 02:21N 23°40' E 118°55'8 7.9
2014-Sep-18 01:21N 23°35' E 119°01'6 7.7
2014-Sep-18 00:33N 23°31' E 119°06'10 7.7
2014-Sep-17 23:17N 23°24' E 119°14'18 9.8
2014-Sep-17 21:28N 23°08' E 119°24'28 9.6
2014-Sep-17 18:33N 22°52' E 119°48'1010.0
2014-Sep-17 17:33N 22°47' E 119°57'  

Dump ship's entire track history